Time;durP1;ratioP1;P1;durP2;ratioP2;P2;SDS_P1;SDS_P2;PMS_P1;PMS_P2;Temp;Humidity;BMP_temperature;BMP_pressure;BME280_temperature;BME280_humidity;BME280_pressure;Samples;Min_cycle;Max_cycle;Signal;HPM_P1;HPM_P2
2022/08/30 00:01:12;;;;;;;11.03;2.00;;;23.30;99.90;;;;;;5072936;28;20193;-72
2022/08/30 00:03:45;;;;;;;6.60;1.90;;;23.90;99.90;;;;;;5072980;28;20671;-71
2022/08/30 00:06:14;;;;;;;4.00;1.87;;;24.00;99.90;;;;;;5073042;28;20272;-72
2022/08/30 00:08:42;;;;;;;4.83;1.90;;;24.00;99.90;;;;;;5072261;28;20191;-70
2022/08/30 00:11:13;;;;;;;4.97;1.57;;;23.90;99.90;;;;;;5070048;28;20206;-71
2022/08/30 00:13:44;;;;;;;2.93;1.70;;;23.90;99.90;;;;;;5072323;28;20197;-71
2022/08/30 00:16:15;;;;;;;4.73;2.00;;;23.80;99.90;;;;;;5076636;28;20205;-72
2022/08/30 00:18:44;;;;;;;5.73;1.83;;;24.20;99.90;;;;;;5071541;28;20191;-72
2022/08/30 00:21:12;;;;;;;4.50;1.70;;;24.40;99.90;;;;;;5071181;28;20176;-71
2022/08/30 00:23:40;;;;;;;6.13;1.73;;;24.50;99.90;;;;;;5072769;28;20199;-72
2022/08/30 00:26:08;;;;;;;3.43;1.90;;;24.80;99.90;;;;;;5071957;28;20176;-70
2022/08/30 00:28:36;;;;;;;5.60;1.80;;;24.30;99.90;;;;;;5072183;28;20190;-71
2022/08/30 00:31:05;;;;;;;13.70;2.47;;;24.50;99.90;;;;;;5071737;28;20339;-70
2022/08/30 00:33:32;;;;;;;9.03;2.20;;;24.50;99.90;;;;;;5059999;28;20187;-71
2022/08/30 00:36:00;;;;;;;6.47;2.27;;;24.60;99.90;;;;;;5052691;28;20181;-71
2022/08/30 00:38:28;;;;;;;6.40;2.30;;;24.40;99.90;;;;;;5053006;28;20184;-71
2022/08/30 00:40:58;;;;;;;3.73;2.20;;;24.30;99.90;;;;;;5072011;28;20974;-71
2022/08/30 00:43:29;;;;;;;5.10;2.10;;;24.50;99.90;;;;;;5072040;28;20194;-71
2022/08/30 00:46:03;;;;;;;7.53;2.63;;;24.50;99.90;;;;;;5071873;28;20179;-71
2022/08/30 00:48:31;;;;;;;8.43;2.47;;;24.70;99.90;;;;;;5072486;28;20237;-71
2022/08/30 00:51:04;;;;;;;6.00;2.27;;;24.90;99.90;;;;;;5071649;28;20227;-71
2022/08/30 00:53:36;;;;;;;4.87;2.00;;;25.10;99.90;;;;;;5072076;28;20213;-73
2022/08/30 00:56:05;;;;;;;7.13;2.40;;;25.20;99.90;;;;;;5071820;28;20270;-71
2022/08/30 00:58:39;;;;;;;5.40;2.00;;;25.20;99.90;;;;;;5071935;28;20275;-71
2022/08/30 01:01:08;;;;;;;4.03;1.80;;;25.20;99.90;;;;;;5070410;28;20664;-72
2022/08/30 01:03:38;;;;;;;6.10;2.53;;;25.00;99.90;;;;;;5071693;28;20594;-72
2022/08/30 01:06:07;;;;;;;4.73;2.00;;;24.90;99.90;;;;;;5071778;28;20191;-71
2022/08/30 01:08:35;;;;;;;6.27;1.97;;;24.90;99.90;;;;;;5071425;28;20223;-71
2022/08/30 01:11:03;;;;;;;7.83;1.80;;;25.00;99.90;;;;;;5071460;28;20221;-73
2022/08/30 01:13:33;;;;;;;3.70;1.90;;;24.80;99.90;;;;;;5071795;28;20262;-73
2022/08/30 01:16:01;;;;;;;4.50;1.80;;;25.20;99.90;;;;;;5071436;28;20187;-70
2022/08/30 01:18:30;;;;;;;4.23;2.20;;;25.00;99.90;;;;;;5071685;28;20597;-72
2022/08/30 01:21:03;;;;;;;4.47;2.33;;;25.10;99.90;;;;;;5071258;28;20874;-71
2022/08/30 01:23:33;;;;;;;6.40;1.97;;;25.00;99.90;;;;;;5069514;28;20270;-70
2022/08/30 01:26:04;;;;;;;8.67;2.20;;;24.90;99.90;;;;;;5071405;28;20259;-73
2022/08/30 01:28:33;;;;;;;5.83;2.03;;;24.70;99.90;;;;;;5071688;28;20183;-72
2022/08/30 01:31:01;;;;;;;5.80;2.27;;;24.90;99.90;;;;;;5074201;28;20234;-72
2022/08/30 01:33:29;;;;;;;4.80;2.30;;;24.80;99.90;;;;;;5072770;28;20187;-72
2022/08/30 01:36:06;;;;;;;8.33;2.27;;;25.20;99.90;;;;;;5071592;28;20214;-70
2022/08/30 01:38:38;;;;;;;5.93;2.07;;;24.90;99.90;;;;;;5071501;28;20286;-72
2022/08/30 01:41:18;;;;;;;6.43;2.33;;;25.00;99.90;;;;;;5071118;28;20187;-72
2022/08/30 01:43:46;;;;;;;8.73;2.40;;;25.20;99.90;;;;;;5071263;28;20269;-72
2022/08/30 01:46:17;;;;;;;3.87;2.30;;;25.20;99.90;;;;;;5071101;28;20567;-72
2022/08/30 01:48:46;;;;;;;10.70;2.00;;;25.30;99.90;;;;;;5070954;28;20187;-73
2022/08/30 01:51:15;;;;;;;4.43;1.90;;;25.20;99.90;;;;;;5070994;28;20284;-73
2022/08/30 01:53:44;;;;;;;4.73;2.43;;;25.60;99.90;;;;;;5070903;28;20653;-72
2022/08/30 01:56:13;;;;;;;4.40;2.53;;;25.80;99.90;;;;;;5070992;28;20214;-71
2022/08/30 01:58:42;;;;;;;11.37;2.40;;;25.80;99.90;;;;;;5071115;28;20211;-72
2022/08/30 02:01:13;;;;;;;3.70;2.20;;;25.80;99.90;;;;;;5071170;28;20263;-72
2022/08/30 02:03:43;;;;;;;4.13;1.87;;;25.70;99.90;;;;;;5071285;28;20184;-73
2022/08/30 02:06:14;;;;;;;3.43;2.33;;;25.50;99.90;;;;;;5069486;28;20329;-72
2022/08/30 02:08:42;;;;;;;4.93;2.60;;;25.80;99.90;;;;;;5071331;28;20172;-72
2022/08/30 02:11:11;;;;;;;6.63;2.10;;;25.40;99.90;;;;;;5070906;28;20219;-72
2022/08/30 02:13:40;;;;;;;5.03;1.90;;;25.70;99.90;;;;;;5071119;28;20645;-72
2022/08/30 02:16:12;;;;;;;8.27;2.50;;;25.50;99.90;;;;;;5069925;28;20641;-71
2022/08/30 02:18:40;;;;;;;5.77;2.37;;;25.30;99.90;;;;;;5071092;28;20176;-71
2022/08/30 02:21:08;;;;;;;6.80;2.37;;;25.00;99.90;;;;;;5064210;28;20194;-70
2022/08/30 02:23:36;;;;;;;4.13;2.37;;;24.80;99.90;;;;;;5059368;28;20191;-77
2022/08/30 02:26:04;;;;;;;4.17;2.40;;;25.10;99.90;;;;;;5060552;28;20184;-73
2022/08/30 02:28:32;;;;;;;12.17;2.90;;;24.90;99.90;;;;;;5070635;28;20507;-73
2022/08/30 02:31:00;;;;;;;3.93;2.40;;;25.30;99.90;;;;;;5070774;28;20219;-73
2022/08/30 02:33:28;;;;;;;5.83;2.43;;;25.30;99.90;;;;;;5073419;28;20184;-70
2022/08/30 02:35:55;;;;;;;5.53;2.17;;;25.10;99.90;;;;;;5074601;28;20563;-71
2022/08/30 02:38:23;;;;;;;3.63;2.33;;;24.70;99.90;;;;;;5074405;28;20188;-75
2022/08/30 02:40:51;;;;;;;6.40;2.70;;;25.00;99.90;;;;;;5073948;28;20653;-72
2022/08/30 02:43:19;;;;;;;4.87;2.37;;;25.10;99.90;;;;;;5074527;28;20218;-72
2022/08/30 02:45:47;;;;;;;4.40;2.63;;;25.20;99.90;;;;;;5074418;28;20199;-72
2022/08/30 02:48:14;;;;;;;6.57;2.60;;;24.80;99.90;;;;;;5074177;28;20285;-71
2022/08/30 02:50:43;;;;;;;6.23;2.40;;;24.80;99.90;;;;;;5074180;28;20246;-70
2022/08/30 02:53:11;;;;;;;6.97;2.23;;;24.80;99.90;;;;;;5074280;28;20267;-76
2022/08/30 02:55:39;;;;;;;5.07;2.33;;;25.00;99.90;;;;;;5074789;28;20184;-71
2022/08/30 02:58:07;;;;;;;3.40;2.27;;;24.80;99.90;;;;;;5074221;28;20190;-73
2022/08/30 03:00:34;;;;;;;3.17;2.00;;;24.50;99.90;;;;;;5074451;28;20183;-71
2022/08/30 03:03:06;;;;;;;6.27;2.43;;;24.70;99.90;;;;;;5074281;28;20187;-71
2022/08/30 03:05:34;;;;;;;6.23;2.60;;;24.90;99.90;;;;;;5074086;28;20636;-71
2022/08/30 03:08:02;;;;;;;4.23;2.23;;;25.00;99.90;;;;;;5073979;28;20179;-70
2022/08/30 03:10:30;;;;;;;7.30;2.23;;;25.00;99.90;;;;;;5074266;28;20207;-70
2022/08/30 03:12:58;;;;;;;6.37;2.80;;;25.00;99.90;;;;;;5074012;28;20573;-71
2022/08/30 03:15:26;;;;;;;5.47;2.20;;;25.00;99.90;;;;;;5074029;28;20228;-71
2022/08/30 03:17:54;;;;;;;4.60;2.10;;;24.60;99.90;;;;;;5074034;28;20176;-70
2022/08/30 03:20:23;;;;;;;4.83;2.43;;;25.10;99.90;;;;;;5073858;28;20645;-71
2022/08/30 03:22:50;;;;;;;5.43;2.43;;;25.00;99.90;;;;;;5073786;28;20597;-72
2022/08/30 03:25:19;;;;;;;6.97;2.63;;;24.90;99.90;;;;;;5073375;28;20191;-71
2022/08/30 03:27:49;;;;;;;5.40;2.97;;;24.90;99.90;;;;;;5073202;28;20210;-71
2022/08/30 03:30:18;;;;;;;4.83;2.20;;;25.00;99.90;;;;;;5073829;28;20246;-72
2022/08/30 03:32:47;;;;;;;7.40;2.13;;;25.20;99.90;;;;;;5072321;28;20241;-76
2022/08/30 03:35:16;;;;;;;5.13;2.93;;;24.90;99.90;;;;;;5073680;28;20210;-73
2022/08/30 03:37:43;;;;;;;6.10;2.70;;;25.30;99.90;;;;;;5073548;28;20191;-72
2022/08/30 03:40:13;;;;;;;6.13;2.90;;;25.00;99.90;;;;;;5072976;28;20191;-70
2022/08/30 03:42:41;;;;;;;4.13;2.07;;;25.30;99.90;;;;;;5073467;28;20184;-73
2022/08/30 03:45:09;;;;;;;3.87;1.80;;;25.50;99.90;;;;;;5072782;28;20305;-72
2022/08/30 03:47:37;;;;;;;7.77;2.30;;;24.90;99.90;;;;;;5073093;28;20187;-73
2022/08/30 03:50:06;;;;;;;2.63;1.90;;;24.30;99.90;;;;;;5072872;28;20242;-77
2022/08/30 03:52:33;;;;;;;4.33;2.43;;;24.40;99.90;;;;;;5073117;28;20180;-71
2022/08/30 03:55:01;;;;;;;6.13;2.73;;;24.20;99.90;;;;;;5071338;28;20215;-72
2022/08/30 03:57:29;;;;;;;4.10;2.40;;;23.80;99.90;;;;;;5063658;28;20185;-72
2022/08/30 03:59:56;;;;;;;4.90;2.50;;;24.10;99.90;;;;;;5039934;28;20180;-73
2022/08/30 04:02:28;;;;;;;5.53;2.13;;;24.20;99.90;;;;;;5069235;28;20194;-76
2022/08/30 04:04:56;;;;;;;8.03;2.23;;;24.30;99.90;;;;;;5073470;28;20176;-71
2022/08/30 04:07:24;;;;;;;7.97;2.83;;;23.90;99.90;;;;;;5072700;28;20952;-73
2022/08/30 04:09:52;;;;;;;4.27;2.40;;;23.50;99.90;;;;;;5071701;28;20272;-70
2022/08/30 04:12:19;;;;;;;4.07;1.90;;;23.70;99.90;;;;;;5064451;28;20191;-69
2022/08/30 04:14:46;;;;;;;3.77;1.97;;;23.70;99.90;;;;;;5072858;28;20273;-69
2022/08/30 04:17:24;;;;;;;7.30;1.90;;;23.70;99.90;;;;;;5073147;28;20178;-71
2022/08/30 04:19:51;;;;;;;13.73;2.63;;;23.50;99.90;;;;;;5071969;28;20186;-70
2022/08/30 04:22:18;;;;;;;6.53;2.33;;;23.30;99.90;;;;;;5073199;28;20641;-71
2022/08/30 04:24:46;;;;;;;6.67;2.43;;;23.70;99.90;;;;;;5072766;28;20211;-73
2022/08/30 04:27:13;;;;;;;5.00;2.17;;;24.00;99.90;;;;;;5072855;28;20665;-70
2022/08/30 04:29:42;;;;;;;5.47;2.73;;;23.70;99.90;;;;;;5070714;28;20278;-70
2022/08/30 04:32:10;;;;;;;10.43;3.63;;;23.20;99.90;;;;;;5072918;28;20180;-73
2022/08/30 04:34:37;;;;;;;4.17;2.20;;;23.40;99.90;;;;;;5072916;28;20228;-68
2022/08/30 04:37:05;;;;;;;5.00;1.90;;;23.40;99.90;;;;;;5070980;28;20190;-69
2022/08/30 04:39:36;;;;;;;11.57;3.43;;;23.70;99.90;;;;;;5072724;28;20184;-71
2022/08/30 04:42:10;;;;;;;3.67;2.53;;;23.80;99.90;;;;;;5072470;28;20570;-70
2022/08/30 04:44:40;;;;;;;6.63;2.00;;;23.70;99.90;;;;;;5071418;28;20195;-70
2022/08/30 04:47:08;;;;;;;6.50;1.83;;;23.50;99.90;;;;;;5071979;28;20247;-72
2022/08/30 04:49:37;;;;;;;4.07;1.87;;;23.30;99.90;;;;;;5072260;28;20264;-70
2022/08/30 04:52:07;;;;;;;8.43;2.23;;;23.20;99.90;;;;;;5072419;28;20734;-71
2022/08/30 04:54:34;;;;;;;6.77;1.90;;;23.20;99.90;;;;;;5071950;28;20203;-70
2022/08/30 04:57:06;;;;;;;5.87;2.03;;;23.10;99.90;;;;;;5071225;28;20236;-72
2022/08/30 04:59:33;;;;;;;3.80;2.10;;;23.00;99.90;;;;;;5071805;28;20206;-71
2022/08/30 05:02:01;;;;;;;5.80;2.40;;;23.20;99.90;;;;;;5070959;28;20657;-70
2022/08/30 05:04:31;;;;;;;5.33;2.47;;;23.50;99.90;;;;;;5070703;28;20188;-71
2022/08/30 05:07:00;;;;;;;2.27;1.93;;;23.70;99.90;;;;;;5070732;28;20557;-70
2022/08/30 05:09:27;;;;;;;5.93;1.57;;;23.80;99.90;;;;;;5071980;28;20175;-69
2022/08/30 05:11:55;;;;;;;3.47;1.60;;;23.90;99.90;;;;;;5070113;28;20749;-69
2022/08/30 05:14:25;;;;;;;5.27;2.00;;;23.90;99.90;;;;;;5071973;28;20180;-72
2022/08/30 05:16:52;;;;;;;3.87;1.90;;;24.00;99.90;;;;;;5072021;28;20544;-71
2022/08/30 05:19:20;;;;;;;3.13;1.80;;;24.20;99.90;;;;;;5070372;28;20229;-72
2022/08/30 05:21:50;;;;;;;4.23;2.10;;;24.30;99.90;;;;;;5060732;28;20199;-72
2022/08/30 05:24:17;;;;;;;1.83;1.57;;;24.20;99.90;;;;;;5071819;28;20172;-72
2022/08/30 05:26:45;;;;;;;8.13;2.27;;;24.10;99.90;;;;;;5071823;28;20293;-73
2022/08/30 05:29:12;;;;;;;6.93;2.47;;;24.00;99.90;;;;;;5071440;28;20865;-73
2022/08/30 05:31:41;;;;;;;3.97;1.53;;;23.90;99.90;;;;;;5071468;28;20582;-73
2022/08/30 05:34:08;;;;;;;2.47;1.87;;;23.90;99.90;;;;;;5071629;28;20254;-70
2022/08/30 05:36:37;;;;;;;11.00;3.10;;;23.70;99.90;;;;;;5071661;28;20183;-71
2022/08/30 05:39:07;;;;;;;4.63;1.93;;;23.60;99.90;;;;;;5071563;28;20194;-72
2022/08/30 05:41:35;;;;;;;3.70;2.23;;;23.80;99.90;;;;;;5071997;28;20195;-71
2022/08/30 05:44:04;;;;;;;6.60;2.20;;;23.70;99.90;;;;;;5071774;28;20615;-73
2022/08/30 05:46:33;;;;;;;2.90;1.80;;;23.60;99.90;;;;;;5071328;28;20186;-72
2022/08/30 05:49:03;;;;;;;5.50;1.90;;;23.60;99.90;;;;;;5069538;28;20257;-72
2022/08/30 05:51:33;;;;;;;2.97;1.50;;;23.70;99.90;;;;;;5069926;28;20716;-73
2022/08/30 05:54:01;;;;;;;6.50;1.60;;;23.70;99.90;;;;;;5071240;28;20608;-73
2022/08/30 05:56:32;;;;;;;1.10;0.70;;;23.90;99.90;;;;;;5071588;28;20184;-72
2022/08/30 05:59:00;;;;;;;5.00;0.80;;;23.90;80.20;;;;;;5071332;28;20188;-72
2022/08/30 06:01:30;;;;;;;1.53;0.70;;;24.00;63.20;;;;;;5063406;28;20184;-73
2022/08/30 06:04:00;;;;;;;4.17;0.60;;;24.10;58.70;;;;;;5063595;28;20183;-73
2022/08/30 06:06:29;;;;;;;1.33;0.70;;;24.10;56.20;;;;;;5070402;28;20195;-73
2022/08/30 06:08:57;;;;;;;1.50;0.77;;;24.10;52.80;;;;;;5055468;28;20183;-72
2022/08/30 06:11:27;;;;;;;3.43;0.80;;;24.10;49.40;;;;;;5055468;28;20692;-72
2022/08/30 06:13:55;;;;;;;5.70;0.70;;;24.00;49.50;;;;;;5055486;28;20179;-71
2022/08/30 06:16:25;;;;;;;2.30;0.80;;;24.00;48.00;;;;;;5055559;28;20193;-72
2022/08/30 06:18:53;;;;;;;1.73;0.40;;;23.90;49.80;;;;;;5055310;28;20174;-73
2022/08/30 06:21:24;;;;;;;3.47;0.67;;;23.80;48.00;;;;;;5054211;28;20188;-73
2022/08/30 06:23:53;;;;;;;2.07;0.70;;;23.80;46.30;;;;;;5055165;28;20182;-72
2022/08/30 06:26:20;;;;;;;2.70;0.90;;;23.80;48.10;;;;;;5069064;28;20554;-71
2022/08/30 06:28:48;;;;;;;1.97;1.20;;;23.70;47.20;;;;;;5076289;28;20168;-71
2022/08/30 06:31:17;;;;;;;2.07;0.70;;;23.70;47.90;;;;;;5075469;28;20250;-71
2022/08/30 06:33:45;;;;;;;1.27;0.53;;;23.60;47.20;;;;;;5076192;28;20547;-73
2022/08/30 06:36:18;;;;;;;2.57;0.70;;;23.60;47.00;;;;;;5076029;28;20188;-72
2022/08/30 06:38:46;;;;;;;2.03;0.50;;;23.50;45.50;;;;;;5076494;28;20542;-72
2022/08/30 06:41:17;;;;;;;2.23;0.70;;;23.50;44.30;;;;;;5075594;28;20194;-71
2022/08/30 06:43:51;;;;;;;3.70;0.50;;;23.40;44.70;;;;;;5076540;28;20184;-72
2022/08/30 06:46:25;;;;;;;3.03;0.60;;;23.40;44.90;;;;;;5075956;28;20540;-73
2022/08/30 06:48:56;;;;;;;2.23;0.80;;;23.30;45.40;;;;;;5074827;28;20200;-73
2022/08/30 06:51:29;;;;;;;4.77;0.70;;;23.20;45.00;;;;;;5075778;28;20215;-73
2022/08/30 06:53:57;;;;;;;1.40;0.70;;;23.00;46.70;;;;;;5074886;28;20183;-73
2022/08/30 06:56:25;;;;;;;2.60;0.57;;;22.90;45.10;;;;;;5075933;28;20415;-73
2022/08/30 06:58:52;;;;;;;1.77;0.70;;;22.80;46.30;;;;;;5076094;28;20188;-71
2022/08/30 07:01:23;;;;;;;2.27;1.30;;;22.70;46.90;;;;;;5075819;28;20183;-72
2022/08/30 07:03:52;;;;;;;1.90;0.80;;;22.50;48.40;;;;;;5076174;28;20268;-72
2022/08/30 07:06:19;;;;;;;2.70;0.70;;;22.30;48.60;;;;;;5076338;28;20176;-73
2022/08/30 07:08:49;;;;;;;1.77;0.77;;;22.30;48.60;;;;;;5075379;28;20195;-73
2022/08/30 07:11:26;;;;;;;2.07;0.50;;;22.20;49.80;;;;;;5075847;28;20216;-72
2022/08/30 07:13:53;;;;;;;1.53;0.77;;;22.10;50.70;;;;;;5074670;28;20629;-72
2022/08/30 07:16:21;;;;;;;3.37;0.80;;;21.90;52.50;;;;;;5075852;28;20168;-72
2022/08/30 07:18:53;;;;;;;3.90;0.70;;;21.80;52.70;;;;;;5074788;28;20537;-72
2022/08/30 07:21:31;;;;;;;2.80;1.00;;;21.60;53.20;;;;;;5075636;28;20176;-72
2022/08/30 07:24:01;;;;;;;2.20;0.70;;;21.60;52.80;;;;;;5068133;28;20179;-71
2022/08/30 07:26:35;;;;;;;2.70;0.70;;;21.40;54.00;;;;;;5066764;28;20174;-70
2022/08/30 07:29:04;;;;;;;3.57;0.73;;;21.20;54.00;;;;;;5075456;28;20536;-70
2022/08/30 07:31:33;;;;;;;4.73;0.70;;;21.00;54.00;;;;;;5075479;28;20211;-69
2022/08/30 07:34:01;;;;;;;3.07;0.80;;;20.90;54.40;;;;;;5074190;28;20181;-70
2022/08/30 07:36:28;;;;;;;1.80;0.67;;;20.80;55.40;;;;;;5074377;28;20697;-71
2022/08/30 07:38:57;;;;;;;3.27;0.80;;;20.70;55.80;;;;;;5075267;28;20173;-69
2022/08/30 07:41:29;;;;;;;0.67;0.60;;;20.60;55.90;;;;;;5075345;28;20184;-69
2022/08/30 07:43:57;;;;;;;2.90;1.00;;;20.50;56.00;;;;;;5075327;28;20613;-70
2022/08/30 07:46:25;;;;;;;3.23;0.70;;;20.40;55.90;;;;;;5075312;28;20249;-72
2022/08/30 07:48:53;;;;;;;1.17;0.70;;;20.30;56.70;;;;;;5075043;28;20171;-69
2022/08/30 07:51:24;;;;;;;0.93;0.87;;;20.20;57.10;;;;;;5074935;28;20656;-68
2022/08/30 07:53:54;;;;;;;0.60;0.60;;;20.10;58.60;;;;;;5075384;28;20646;-70
2022/08/30 07:56:23;;;;;;;1.80;0.70;;;20.00;58.10;;;;;;5073691;28;20633;-70
2022/08/30 07:58:50;;;;;;;2.03;0.70;;;20.00;59.10;;;;;;5057189;28;20625;-70
2022/08/30 08:01:19;;;;;;;0.50;0.50;;;19.80;59.70;;;;;;5073273;28;20547;-69
2022/08/30 08:03:49;;;;;;;0.80;0.50;;;19.70;60.40;;;;;;5073716;28;20218;-68
2022/08/30 08:06:19;;;;;;;1.67;0.63;;;19.70;62.10;;;;;;5074913;28;20176;-70
2022/08/30 08:08:47;;;;;;;1.40;0.77;;;19.70;62.40;;;;;;5074866;28;20172;-70
2022/08/30 08:11:24;;;;;;;1.80;0.67;;;19.60;63.00;;;;;;5074746;28;20225;-69
2022/08/30 08:13:54;;;;;;;2.00;0.90;;;19.50;65.60;;;;;;5074852;28;20182;-70
2022/08/30 08:16:26;;;;;;;1.07;0.70;;;19.40;65.30;;;;;;5074864;28;20170;-70
2022/08/30 08:18:55;;;;;;;0.73;0.50;;;19.40;68.30;;;;;;5073316;28;20237;-69
2022/08/30 08:21:25;;;;;;;1.20;0.57;;;19.30;69.30;;;;;;5057157;28;20196;-71
2022/08/30 08:23:52;;;;;;;0.40;0.40;;;19.20;69.00;;;;;;5074723;28;20168;-69
2022/08/30 08:26:23;;;;;;;1.50;0.50;;;19.00;73.80;;;;;;5074966;28;20177;-69
2022/08/30 08:28:51;;;;;;;1.53;0.77;;;18.90;77.50;;;;;;5074467;28;20525;-69
2022/08/30 08:31:21;;;;;;;2.07;0.63;;;18.80;81.40;;;;;;5073365;28;20202;-71
2022/08/30 08:33:49;;;;;;;1.03;0.60;;;18.70;82.20;;;;;;5074866;28;20656;-68
2022/08/30 08:36:17;;;;;;;6.60;0.83;;;18.60;83.20;;;;;;5074348;28;20179;-72
2022/08/30 08:38:45;;;;;;;1.87;0.70;;;18.50;86.10;;;;;;5072932;28;20179;-69
2022/08/30 08:41:16;;;;;;;1.53;0.63;;;18.50;88.90;;;;;;5074314;28;20645;-70
2022/08/30 08:43:54;;;;;;;1.87;0.90;;;18.50;90.20;;;;;;5074468;28;20179;-70
2022/08/30 08:46:53;;;;;;;0.90;0.60;;;18.40;91.20;;;;;;5073220;28;20184;-70
2022/08/30 08:49:21;;;;;;;1.47;0.60;;;18.40;91.40;;;;;;5073851;28;20211;-69
2022/08/30 08:54:44;;;;;;;0.80;0.70;;;18.30;94.20;;;;;;5072894;28;20192;-75
2022/08/30 08:57:12;;;;;;;0.90;0.60;;;18.30;94.50;;;;;;5074054;28;20259;-75
2022/08/30 08:59:42;;;;;;;3.47;0.93;;;18.20;96.60;;;;;;5073936;28;20645;-75
2022/08/30 09:02:28;;;;;;;1.80;0.90;;;18.20;97.20;;;;;;5072978;28;20187;-76
2022/08/30 09:05:00;;;;;;;2.23;0.87;;;18.20;98.60;;;;;;5073986;28;20641;-71
2022/08/30 09:07:36;;;;;;;2.50;0.93;;;18.10;99.90;;;;;;5073965;28;20169;-76
2022/08/30 09:10:07;;;;;;;3.63;0.70;;;18.00;99.90;;;;;;5073837;28;20187;-76
2022/08/30 09:12:37;;;;;;;1.50;0.70;;;17.90;99.90;;;;;;5073691;28;20207;-70
2022/08/30 09:15:12;;;;;;;1.90;0.80;;;17.90;99.90;;;;;;5072486;28;20192;-70
2022/08/30 09:18:04;;;;;;;2.07;0.80;;;17.80;99.90;;;;;;5073782;28;20531;-70
2022/08/30 09:20:36;;;;;;;0.93;0.90;;;17.70;99.90;;;;;;5073718;28;20259;-70
2022/08/30 09:23:27;;;;;;;1.13;0.70;;;17.70;99.90;;;;;;5073883;28;20239;-69
2022/08/30 09:26:04;;;;;;;1.97;1.00;;;17.70;99.90;;;;;;5073735;28;20629;-69
2022/08/30 09:28:52;;;;;;;1.40;0.50;;;17.60;99.90;;;;;;5073191;28;20187;-70
2022/08/30 09:31:30;;;;;;;3.47;0.97;;;17.50;99.90;;;;;;5072108;28;20215;-69
2022/08/30 09:34:02;;;;;;;3.33;0.90;;;17.50;99.90;;;;;;5073705;28;20188;-70
2022/08/30 09:36:44;;;;;;;2.07;0.90;;;17.50;99.90;;;;;;5073524;28;20171;-70
2022/08/30 09:39:43;;;;;;;3.70;0.90;;;17.60;99.90;;;;;;5073362;28;20186;-70
2022/08/30 09:42:27;;;;;;;2.57;1.10;;;17.60;99.90;;;;;;5073149;28;20258;-71
2022/08/30 09:45:09;;;;;;;2.07;0.73;;;17.40;99.90;;;;;;5073272;28;20215;-70
2022/08/30 09:47:41;;;;;;;3.90;0.90;;;17.40;99.90;;;;;;5073176;28;20183;-69
2022/08/30 09:50:21;;;;;;;2.17;0.90;;;17.20;99.90;;;;;;5072916;28;20280;-73
2022/08/30 09:53:08;;;;;;;3.33;1.00;;;17.20;99.90;;;;;;5071423;28;20223;-69
2022/08/30 09:56:08;;;;;;;1.87;0.77;;;17.20;99.90;;;;;;5073627;28;20175;-70
2022/08/30 09:59:08;;;;;;;2.53;0.90;;;17.10;99.90;;;;;;5073375;28;20186;-72
2022/08/30 10:02:26;;;;;;;2.30;0.77;;;17.00;99.90;;;;;;5073370;28;20187;-72
2022/08/30 10:05:25;;;;;;;1.00;0.80;;;16.90;99.90;;;;;;5073358;28;20176;-74
2022/08/30 10:08:22;;;;;;;3.10;0.80;;;16.80;99.90;;;;;;5072980;28;20231;-73
2022/08/30 10:10:51;;;;;;;2.63;1.00;;;16.70;99.90;;;;;;5073179;28;20204;-76
2022/08/30 10:13:36;;;;;;;2.17;0.97;;;16.60;99.90;;;;;;5072083;28;20206;-76
2022/08/30 10:16:53;;;;;;;1.73;0.70;;;16.50;99.90;;;;;;5071591;28;20176;-71
2022/08/30 10:19:41;;;;;;;2.63;0.70;;;16.40;99.90;;;;;;5073084;28;20179;-77
2022/08/30 10:22:38;;;;;;;1.73;0.77;;;16.40;99.90;;;;;;5073464;28;20183;-75
2022/08/30 10:25:26;;;;;;;2.50;0.97;;;16.30;99.90;;;;;;5071496;28;20552;-72
2022/08/30 10:28:09;;;;;;;2.43;0.90;;;16.20;99.90;;;;;;5072480;28;20180;-72
2022/08/30 10:30:41;;;;;;;4.43;0.77;;;16.20;99.90;;;;;;5073213;28;20225;-74
2022/08/30 10:33:26;;;;;;;3.60;0.87;;;16.10;99.90;;;;;;5072927;28;20184;-74
2022/08/30 10:36:01;;;;;;;2.50;1.00;;;16.00;99.90;;;;;;5076258;28;20739;-73
2022/08/30 10:38:36;;;;;;;2.60;1.10;;;15.90;99.90;;;;;;5072911;28;20225;-75
2022/08/30 10:41:24;;;;;;;4.97;2.07;;;15.90;99.90;;;;;;5072717;28;20533;-69
2022/08/30 10:44:08;;;;;;;4.97;2.30;;;15.70;99.90;;;;;;5072835;28;20179;-69
2022/08/30 10:46:59;;;;;;;3.90;2.00;;;15.60;99.90;;;;;;5071386;28;20191;-70
2022/08/30 10:49:34;;;;;;;3.97;2.10;;;15.50;99.90;;;;;;5071298;28;20716;-68
2022/08/30 10:52:25;;;;;;;4.27;1.27;;;15.50;99.90;;;;;;5072372;28;20235;-68
2022/08/30 10:55:03;;;;;;;1.20;0.90;;;15.40;99.90;;;;;;5075826;28;20187;-70
2022/08/30 10:57:32;;;;;;;0.90;0.60;;;15.40;99.90;;;;;;5074940;28;20186;-70
2022/08/30 11:00:15;;;;;;;1.20;0.60;;;15.50;99.90;;;;;;5075896;28;20193;-71
2022/08/30 11:03:25;;;;;;;3.00;1.27;;;15.50;99.90;;;;;;5075989;28;20691;-73
2022/08/30 11:06:19;;;;;;;2.33;1.00;;;15.50;99.90;;;;;;5077347;28;20662;-68
2022/08/30 11:09:07;;;;;;;1.07;0.60;;;15.40;99.90;;;;;;5075818;28;20188;-70
2022/08/30 11:11:53;;;;;;;2.63;0.50;;;15.70;99.90;;;;;;5076056;28;20214;-70
2022/08/30 11:14:22;;;;;;;2.00;0.67;;;16.40;99.90;;;;;;5075986;28;20172;-69
2022/08/30 11:16:52;;;;;;;1.40;0.47;;;16.80;99.90;;;;;;5076016;28;20225;-69
2022/08/30 11:19:25;;;;;;;2.13;0.80;;;17.00;99.90;;;;;;5075860;28;20172;-70
2022/08/30 11:22:28;;;;;;;3.23;0.67;;;17.00;99.90;;;;;;5075976;28;20175;-69
2022/08/30 11:25:10;;;;;;;2.60;1.10;;;16.90;99.90;;;;;;5076195;28;20172;-70
2022/08/30 11:27:46;;;;;;;2.57;0.60;;;16.80;99.90;;;;;;5074418;28;20183;-70
2022/08/30 11:30:29;;;;;;;1.40;0.90;;;16.70;99.90;;;;;;5075738;28;20203;-70
2022/08/30 11:33:12;;;;;;;3.80;0.83;;;16.60;99.90;;;;;;5075786;28;20176;-69
2022/08/30 11:35:44;;;;;;;1.10;0.90;;;16.50;99.90;;;;;;5074356;28;20187;-69
2022/08/30 11:38:20;;;;;;;3.50;1.13;;;16.50;99.90;;;;;;5075558;28;20265;-70
2022/08/30 11:40:52;;;;;;;2.30;0.70;;;16.40;99.90;;;;;;5076136;28;20258;-68
2022/08/30 11:43:38;;;;;;;1.33;0.70;;;16.40;99.90;;;;;;5075680;28;20200;-69
2022/08/30 11:46:28;;;;;;;4.63;1.10;;;16.30;99.90;;;;;;5074094;28;20273;-70
2022/08/30 11:49:14;;;;;;;1.47;0.80;;;16.20;99.90;;;;;;5074074;28;20192;-69
2022/08/30 11:52:03;;;;;;;4.17;1.10;;;16.10;99.90;;;;;;5074921;28;20234;-69
2022/08/30 11:54:37;;;;;;;1.87;0.80;;;15.90;99.90;;;;;;5075332;28;20237;-70
2022/08/30 11:57:10;;;;;;;1.47;0.90;;;15.80;99.90;;;;;;5075216;28;20183;-69
2022/08/30 12:00:02;;;;;;;2.30;0.80;;;15.60;99.90;;;;;;5073967;28;20233;-69
2022/08/30 12:02:58;;;;;;;1.90;0.80;;;15.50;99.90;;;;;;5075104;28;20259;-70
2022/08/30 12:05:39;;;;;;;1.73;1.00;;;15.30;99.90;;;;;;5073445;28;20190;-69
2022/08/30 12:08:28;;;;;;;1.57;0.97;;;15.30;99.90;;;;;;5074686;28;20172;-70
2022/08/30 12:11:04;;;;;;;4.07;0.90;;;15.10;99.90;;;;;;5073509;28;20220;-70
2022/08/30 12:13:37;;;;;;;4.03;0.70;;;15.00;99.90;;;;;;5073537;28;20203;-69
2022/08/30 12:16:07;;;;;;;1.33;0.90;;;14.90;99.90;;;;;;5073491;28;20550;-67
2022/08/30 12:18:45;;;;;;;1.87;1.00;;;14.90;99.90;;;;;;5074691;28;20180;-68
2022/08/30 12:21:24;;;;;;;2.77;0.90;;;14.90;99.90;;;;;;5075159;28;20218;-69
2022/08/30 12:24:12;;;;;;;0.93;0.60;;;14.80;99.90;;;;;;5073167;28;20195;-70
2022/08/30 12:26:43;;;;;;;2.60;0.93;;;14.80;99.90;;;;;;5073241;28;20179;-68
2022/08/30 12:29:17;;;;;;;4.40;1.00;;;14.60;99.90;;;;;;5072998;28;20187;-69
2022/08/30 12:31:59;;;;;;;1.03;0.93;;;14.50;99.90;;;;;;5074507;28;20568;-69
2022/08/30 12:34:32;;;;;;;3.60;0.93;;;14.40;99.90;;;;;;5074447;28;20659;-69
2022/08/30 12:37:03;;;;;;;0.80;0.70;;;14.20;99.90;;;;;;5074415;28;20175;-68
2022/08/30 12:39:43;;;;;;;2.30;0.87;;;14.10;99.90;;;;;;5074241;28;20174;-70
2022/08/30 12:42:27;;;;;;;2.63;0.90;;;14.10;99.90;;;;;;5074735;28;20549;-69
2022/08/30 12:45:01;;;;;;;1.83;0.70;;;14.10;99.90;;;;;;5074372;28;20220;-69
2022/08/30 12:47:44;;;;;;;1.70;0.93;;;14.10;99.90;;;;;;5074218;28;20668;-68
2022/08/30 12:50:17;;;;;;;1.53;0.80;;;14.10;99.90;;;;;;5073984;28;20230;-69
2022/08/30 12:53:18;;;;;;;4.97;0.97;;;14.20;99.90;;;;;;5074169;28;20181;-70
2022/08/30 12:55:54;;;;;;;1.17;0.90;;;14.20;99.90;;;;;;5069013;28;20550;-69
2022/08/30 12:58:42;;;;;;;3.13;0.97;;;14.30;99.90;;;;;;5073890;28;20188;-70
2022/08/30 13:01:18;;;;;;;1.63;0.77;;;14.20;99.90;;;;;;5072589;28;20183;-70
2022/08/30 13:03:55;;;;;;;2.00;1.10;;;14.10;99.90;;;;;;5073962;28;20268;-69
2022/08/30 13:06:50;;;;;;;1.90;0.80;;;14.00;99.90;;;;;;5073635;28;20241;-68
2022/08/30 13:09:38;;;;;;;1.40;0.90;;;13.90;99.90;;;;;;5072392;28;20546;-69
2022/08/30 13:12:19;;;;;;;3.83;1.00;;;13.70;99.90;;;;;;5072477;28;20564;-68
2022/08/30 13:14:48;;;;;;;1.10;0.90;;;13.70;99.90;;;;;;5072519;28;20180;-69
2022/08/30 13:17:21;;;;;;;2.20;1.00;;;13.60;99.90;;;;;;5072977;28;20215;-69
2022/08/30 13:20:07;;;;;;;0.77;0.70;;;13.60;99.90;;;;;;5073791;28;20179;-69